sensor_id;sensor_type;location;lat;lon;timestamp;noise_LAeq;noise_LA_min;noise_LA_max;noise_LA01;noise_LA95
57092;Laerm;42968;52.094;4.328;2024-01-30T00:01:15;45.87;39.81;66.12;;
57092;Laerm;42968;52.094;4.328;2024-01-30T00:03:40;44.78;39.08;62.56;;
57092;Laerm;42968;52.094;4.328;2024-01-30T00:06:11;56.41;37.32;69.71;;
57092;Laerm;42968;52.094;4.328;2024-01-30T00:08:36;49.69;38.67;65.82;;
57092;Laerm;42968;52.094;4.328;2024-01-30T00:11:01;55.27;38.81;73.88;;
57092;Laerm;42968;52.094;4.328;2024-01-30T00:13:27;43.19;38.81;50.89;;
57092;Laerm;42968;52.094;4.328;2024-01-30T00:15:52;49.53;39.21;66.05;;
57092;Laerm;42968;52.094;4.328;2024-01-30T00:18:17;43.16;38.95;47.08;;
57092;Laerm;42968;52.094;4.328;2024-01-30T00:20:43;43.10;36.69;46.05;;
57092;Laerm;42968;52.094;4.328;2024-01-30T00:23:08;42.94;37.32;51.30;;
57092;Laerm;42968;52.094;4.328;2024-01-30T00:25:34;43.37;38.37;46.23;;
57092;Laerm;42968;52.094;4.328;2024-01-30T00:27:59;56.70;38.95;75.59;;
57092;Laerm;42968;52.094;4.328;2024-01-30T00:30:25;59.64;41.06;74.95;;
57092;Laerm;42968;52.094;4.328;2024-01-30T00:32:50;57.58;38.67;76.30;;
57092;Laerm;42968;52.094;4.328;2024-01-30T00:35:15;42.31;36.69;46.69;;
57092;Laerm;42968;52.094;4.328;2024-01-30T00:37:40;50.16;38.05;65.08;;
57092;Laerm;42968;52.094;4.328;2024-01-30T00:40:05;51.95;36.45;71.79;;
57092;Laerm;42968;52.094;4.328;2024-01-30T00:42:31;53.32;38.52;69.17;;
57092;Laerm;42968;52.094;4.328;2024-01-30T00:44:57;42.27;36.69;54.02;;
57092;Laerm;42968;52.094;4.328;2024-01-30T00:47:22;54.61;36.69;75.26;;
57092;Laerm;42968;52.094;4.328;2024-01-30T00:49:47;44.89;37.32;55.82;;
57092;Laerm;42968;52.094;4.328;2024-01-30T00:52:12;42.91;39.92;46.33;;
57092;Laerm;42968;52.094;4.328;2024-01-30T00:54:37;43.03;38.52;52.33;;
57092;Laerm;42968;52.094;4.328;2024-01-30T00:57:03;57.09;37.12;73.02;;
57092;Laerm;42968;52.094;4.328;2024-01-30T00:59:28;56.44;40.03;71.26;;
57092;Laerm;42968;52.094;4.328;2024-01-30T01:01:53;52.04;39.21;70.81;;
57092;Laerm;42968;52.094;4.328;2024-01-30T01:04:18;42.81;36.20;50.95;;
57092;Laerm;42968;52.094;4.328;2024-01-30T01:06:46;43.22;36.45;50.61;;
57092;Laerm;42968;52.094;4.328;2024-01-30T01:09:11;42.03;37.88;44.45;;
57092;Laerm;42968;52.094;4.328;2024-01-30T01:11:37;51.76;38.52;68.21;;
57092;Laerm;42968;52.094;4.328;2024-01-30T01:14:03;42.36;38.67;62.09;;
57092;Laerm;42968;52.094;4.328;2024-01-30T01:16:28;49.95;36.20;69.01;;
57092;Laerm;42968;52.094;4.328;2024-01-30T01:18:53;50.86;37.88;68.57;;
57092;Laerm;42968;52.094;4.328;2024-01-30T01:21:18;49.58;38.21;65.74;;
57092;Laerm;42968;52.094;4.328;2024-01-30T01:23:44;51.09;36.20;68.50;;
57092;Laerm;42968;52.094;4.328;2024-01-30T01:26:09;57.92;37.70;76.07;;
57092;Laerm;42968;52.094;4.328;2024-01-30T01:28:34;41.79;38.37;43.81;;
57092;Laerm;42968;52.094;4.328;2024-01-30T01:31:00;41.96;38.37;54.44;;
57092;Laerm;42968;52.094;4.328;2024-01-30T01:33:30;53.05;37.88;70.79;;
57092;Laerm;42968;52.094;4.328;2024-01-30T01:35:55;42.93;39.89;52.19;;
57092;Laerm;42968;52.094;4.328;2024-01-30T01:38:20;53.53;39.21;73.87;;
57092;Laerm;42968;52.094;4.328;2024-01-30T01:40:46;44.18;35.04;58.01;;
57092;Laerm;42968;52.094;4.328;2024-01-30T01:43:11;57.36;38.05;74.44;;
57092;Laerm;42968;52.094;4.328;2024-01-30T01:45:36;54.19;39.46;69.37;;
57092;Laerm;42968;52.094;4.328;2024-01-30T01:48:01;43.15;38.05;49.35;;
57092;Laerm;42968;52.094;4.328;2024-01-30T01:50:27;51.14;38.52;67.13;;
57092;Laerm;42968;52.094;4.328;2024-01-30T01:52:52;54.07;38.37;68.69;;
57092;Laerm;42968;52.094;4.328;2024-01-30T01:55:18;42.79;37.32;54.56;;
57092;Laerm;42968;52.094;4.328;2024-01-30T01:57:47;42.63;39.08;58.33;;
57092;Laerm;42968;52.094;4.328;2024-01-30T02:00:12;42.36;36.20;61.25;;
57092;Laerm;42968;52.094;4.328;2024-01-30T02:02:37;42.15;37.12;54.44;;
57092;Laerm;42968;52.094;4.328;2024-01-30T02:05:04;47.23;40.89;61.84;;
57092;Laerm;42968;52.094;4.328;2024-01-30T02:07:29;55.26;36.20;71.32;;
57092;Laerm;42968;52.094;4.328;2024-01-30T02:09:55;41.40;36.69;48.64;;
57092;Laerm;42968;52.094;4.328;2024-01-30T02:12:20;41.29;34.69;45.48;;
57092;Laerm;42968;52.094;4.328;2024-01-30T02:14:46;42.04;35.94;48.84;;
57092;Laerm;42968;52.094;4.328;2024-01-30T02:17:11;56.23;38.81;70.28;;
57092;Laerm;42968;52.094;4.328;2024-01-30T02:19:37;52.93;38.95;69.00;;
57092;Laerm;42968;52.094;4.328;2024-01-30T02:22:02;56.74;38.21;73.34;;
57092;Laerm;42968;52.094;4.328;2024-01-30T02:24:27;42.82;37.88;51.70;;
57092;Laerm;42968;52.094;4.328;2024-01-30T02:26:53;52.89;35.66;69.14;;
57092;Laerm;42968;52.094;4.328;2024-01-30T02:29:18;41.37;36.69;43.54;;
57092;Laerm;42968;52.094;4.328;2024-01-30T02:31:43;57.77;34.31;75.23;;
57092;Laerm;42968;52.094;4.328;2024-01-30T02:34:10;44.41;38.05;54.21;;
57092;Laerm;42968;52.094;4.328;2024-01-30T02:36:36;52.34;37.70;72.10;;
57092;Laerm;42968;52.094;4.328;2024-01-30T02:39:01;53.40;38.67;68.83;;
57092;Laerm;42968;52.094;4.328;2024-01-30T02:41:26;51.57;38.95;67.78;;
57092;Laerm;42968;52.094;4.328;2024-01-30T02:43:51;42.68;37.32;50.46;;
57092;Laerm;42968;52.094;4.328;2024-01-30T02:46:16;54.00;38.21;71.12;;
57092;Laerm;42968;52.094;4.328;2024-01-30T02:48:42;41.94;35.04;46.55;;
57092;Laerm;42968;52.094;4.328;2024-01-30T02:51:07;56.82;35.66;74.03;;
57092;Laerm;42968;52.094;4.328;2024-01-30T02:53:32;42.48;37.70;53.39;;
57092;Laerm;42968;52.094;4.328;2024-01-30T02:55:57;41.98;35.36;45.20;;
57092;Laerm;42968;52.094;4.328;2024-01-30T02:58:23;42.35;38.05;49.49;;
57092;Laerm;42968;52.094;4.328;2024-01-30T03:00:48;42.88;37.70;57.57;;
57092;Laerm;42968;52.094;4.328;2024-01-30T03:03:13;50.86;37.12;66.97;;
57092;Laerm;42968;52.094;4.328;2024-01-30T03:05:38;53.13;38.81;73.75;;
57092;Laerm;42968;52.094;4.328;2024-01-30T03:08:04;51.96;38.67;68.64;;
57092;Laerm;42968;52.094;4.328;2024-01-30T03:10:29;42.48;37.32;53.71;;
57092;Laerm;42968;52.094;4.328;2024-01-30T03:12:54;57.43;35.04;76.48;;
57092;Laerm;42968;52.094;4.328;2024-01-30T03:15:20;45.69;38.05;65.92;;
57092;Laerm;42968;52.094;4.328;2024-01-30T03:17:45;42.08;37.88;57.45;;
57092;Laerm;42968;52.094;4.328;2024-01-30T03:20:11;58.18;35.66;75.53;;
57092;Laerm;42968;52.094;4.328;2024-01-30T03:22:36;49.85;36.45;66.03;;
57092;Laerm;42968;52.094;4.328;2024-01-30T03:25:01;41.79;36.20;45.39;;
57092;Laerm;42968;52.094;4.328;2024-01-30T03:27:27;41.98;37.12;48.25;;
57092;Laerm;42968;52.094;4.328;2024-01-30T03:29:52;53.47;38.81;67.72;;
57092;Laerm;42968;52.094;4.328;2024-01-30T03:32:17;58.97;40.13;74.43;;
57092;Laerm;42968;52.094;4.328;2024-01-30T03:34:42;53.40;37.88;70.82;;
57092;Laerm;42968;52.094;4.328;2024-01-30T03:37:07;56.34;39.08;74.07;;
57092;Laerm;42968;52.094;4.328;2024-01-30T03:39:33;57.45;40.80;73.45;;
57092;Laerm;42968;52.094;4.328;2024-01-30T03:41:58;53.11;36.69;74.89;;
57092;Laerm;42968;52.094;4.328;2024-01-30T03:44:23;43.47;37.52;53.48;;
57092;Laerm;42968;52.094;4.328;2024-01-30T03:46:49;53.26;40.62;73.11;;
57092;Laerm;42968;52.094;4.328;2024-01-30T03:49:14;53.38;37.70;72.78;;
57092;Laerm;42968;52.094;4.328;2024-01-30T03:51:39;60.71;39.21;79.49;;
57092;Laerm;42968;52.094;4.328;2024-01-30T03:54:05;58.55;38.95;75.68;;
57092;Laerm;42968;52.094;4.328;2024-01-30T03:56:30;56.61;37.52;73.25;;
57092;Laerm;42968;52.094;4.328;2024-01-30T03:58:55;53.90;40.23;69.97;;
57092;Laerm;42968;52.094;4.328;2024-01-30T04:01:21;58.52;36.91;73.86;;
57092;Laerm;42968;52.094;4.328;2024-01-30T04:03:47;53.29;38.67;72.58;;
57092;Laerm;42968;52.094;4.328;2024-01-30T04:06:12;53.05;39.34;68.88;;
57092;Laerm;42968;52.094;4.328;2024-01-30T04:08:37;58.08;38.81;71.04;;
57092;Laerm;42968;52.094;4.328;2024-01-30T04:11:03;63.19;44.03;75.68;;
57092;Laerm;42968;52.094;4.328;2024-01-30T04:13:29;57.35;40.53;74.83;;
57092;Laerm;42968;52.094;4.328;2024-01-30T04:15:54;59.16;39.58;72.53;;
57092;Laerm;42968;52.094;4.328;2024-01-30T04:18:20;59.69;42.16;75.00;;
57092;Laerm;42968;52.094;4.328;2024-01-30T04:20:45;60.42;42.16;75.71;;
57092;Laerm;42968;52.094;4.328;2024-01-30T04:23:10;61.22;40.62;77.28;;
57092;Laerm;42968;52.094;4.328;2024-01-30T04:25:36;64.28;46.07;76.23;;
57092;Laerm;42968;52.094;4.328;2024-01-30T04:28:01;61.02;42.79;73.67;;
57092;Laerm;42968;52.094;4.328;2024-01-30T04:30:26;61.38;42.98;77.02;;
57092;Laerm;42968;52.094;4.328;2024-01-30T04:32:51;65.49;43.94;79.01;;
57092;Laerm;42968;52.094;4.328;2024-01-30T04:35:16;63.00;42.71;76.70;;
57092;Laerm;42968;52.094;4.328;2024-01-30T04:37:42;65.37;45.75;80.26;;
57092;Laerm;42968;52.094;4.328;2024-01-30T04:40:07;55.68;41.38;69.54;;
57092;Laerm;42968;52.094;4.328;2024-01-30T04:42:33;63.29;44.39;75.76;;
57092;Laerm;42968;52.094;4.328;2024-01-30T04:44:58;63.84;43.81;76.88;;
57092;Laerm;42968;52.094;4.328;2024-01-30T04:47:23;63.96;44.80;78.13;;
57092;Laerm;42968;52.094;4.328;2024-01-30T04:49:49;62.28;43.04;74.80;;
57092;Laerm;42968;52.094;4.328;2024-01-30T04:52:15;63.31;43.54;78.50;;
57092;Laerm;42968;52.094;4.328;2024-01-30T04:54:40;64.03;43.54;74.09;;
57092;Laerm;42968;52.094;4.328;2024-01-30T04:57:06;63.06;43.24;77.40;;
57092;Laerm;42968;52.094;4.328;2024-01-30T04:59:34;62.45;43.14;77.67;;
57092;Laerm;42968;52.094;4.328;2024-01-30T05:02:00;64.69;43.99;79.29;;
57092;Laerm;42968;52.094;4.328;2024-01-30T05:04:25;63.46;43.29;80.13;;
57092;Laerm;42968;52.094;4.328;2024-01-30T05:06:50;62.46;43.68;73.79;;
57092;Laerm;42968;52.094;4.328;2024-01-30T05:09:15;63.80;44.39;74.85;;
57092;Laerm;42968;52.094;4.328;2024-01-30T05:11:41;64.96;45.36;73.33;;
57092;Laerm;42968;52.094;4.328;2024-01-30T05:14:06;66.92;49.21;77.44;;
57092;Laerm;42968;52.094;4.328;2024-01-30T05:16:32;66.62;45.96;79.88;;
57092;Laerm;42968;52.094;4.328;2024-01-30T05:18:57;65.03;45.42;75.34;;
57092;Laerm;42968;52.094;4.328;2024-01-30T05:21:22;68.92;54.14;82.87;;
57092;Laerm;42968;52.094;4.328;2024-01-30T05:23:47;65.53;44.76;79.46;;
57092;Laerm;42968;52.094;4.328;2024-01-30T05:26:13;65.26;45.89;75.80;;
57092;Laerm;42968;52.094;4.328;2024-01-30T05:28:38;67.11;48.57;81.14;;
57092;Laerm;42968;52.094;4.328;2024-01-30T05:31:03;66.17;51.95;77.23;;
57092;Laerm;42968;52.094;4.328;2024-01-30T05:33:28;67.12;43.09;80.26;;
57092;Laerm;42968;52.094;4.328;2024-01-30T05:35:54;64.83;48.61;74.83;;
57092;Laerm;42968;52.094;4.328;2024-01-30T05:38:19;68.98;47.28;79.17;;
57092;Laerm;42968;52.094;4.328;2024-01-30T05:40:44;68.95;53.46;81.35;;
57092;Laerm;42968;52.094;4.328;2024-01-30T05:43:10;69.16;50.00;80.61;;
57092;Laerm;42968;52.094;4.328;2024-01-30T05:45:35;68.65;51.18;76.76;;
57092;Laerm;42968;52.094;4.328;2024-01-30T05:48:01;69.62;49.59;79.00;;
57092;Laerm;42968;52.094;4.328;2024-01-30T05:50:26;69.09;50.87;77.19;;
57092;Laerm;42968;52.094;4.328;2024-01-30T05:52:52;70.16;51.25;81.17;;
57092;Laerm;42968;52.094;4.328;2024-01-30T05:55:17;70.02;53.15;77.07;;
57092;Laerm;42968;52.094;4.328;2024-01-30T05:57:42;69.43;51.72;78.07;;
57092;Laerm;42968;52.094;4.328;2024-01-30T06:00:07;70.97;55.23;82.26;;
57092;Laerm;42968;52.094;4.328;2024-01-30T06:02:33;68.58;51.20;79.07;;
57092;Laerm;42968;52.094;4.328;2024-01-30T06:04:59;70.59;51.51;82.87;;
57092;Laerm;42968;52.094;4.328;2024-01-30T06:07:24;69.22;49.11;77.66;;
57092;Laerm;42968;52.094;4.328;2024-01-30T06:09:49;68.25;50.28;76.51;;
57092;Laerm;42968;52.094;4.328;2024-01-30T06:12:14;70.21;51.97;79.91;;
57092;Laerm;42968;52.094;4.328;2024-01-30T06:14:40;69.60;52.65;80.18;;
57092;Laerm;42968;52.094;4.328;2024-01-30T06:17:07;68.94;57.13;77.94;;
57092;Laerm;42968;52.094;4.328;2024-01-30T06:19:32;70.55;55.84;82.44;;
57092;Laerm;42968;52.094;4.328;2024-01-30T06:21:57;66.60;50.10;78.02;;
57092;Laerm;42968;52.094;4.328;2024-01-30T06:24:23;71.17;57.52;83.40;;
57092;Laerm;42968;52.094;4.328;2024-01-30T06:26:48;68.24;48.83;76.76;;
57092;Laerm;42968;52.094;4.328;2024-01-30T06:29:13;69.89;49.66;78.11;;
57092;Laerm;42968;52.094;4.328;2024-01-30T06:31:40;70.32;57.25;76.92;;
57092;Laerm;42968;52.094;4.328;2024-01-30T06:34:06;69.52;56.93;83.75;;
57092;Laerm;42968;52.094;4.328;2024-01-30T06:36:31;69.71;51.83;77.48;;
57092;Laerm;42968;52.094;4.328;2024-01-30T06:38:56;69.32;58.68;82.07;;
57092;Laerm;42968;52.094;4.328;2024-01-30T06:41:21;70.79;66.00;84.72;;
57092;Laerm;42968;52.094;4.328;2024-01-30T06:43:47;69.13;55.17;79.53;;
57092;Laerm;42968;52.094;4.328;2024-01-30T06:46:12;69.94;49.79;79.50;;
57092;Laerm;42968;52.094;4.328;2024-01-30T06:48:38;69.15;50.33;77.77;;
57092;Laerm;42968;52.094;4.328;2024-01-30T06:51:05;68.08;50.99;76.10;;
57092;Laerm;42968;52.094;4.328;2024-01-30T06:53:30;69.66;51.81;82.95;;
57092;Laerm;42968;52.094;4.328;2024-01-30T06:55:55;68.20;47.93;84.34;;
57092;Laerm;42968;52.094;4.328;2024-01-30T06:58:21;69.50;51.17;80.49;;
57092;Laerm;42968;52.094;4.328;2024-01-30T07:00:46;68.07;56.81;77.05;;
57092;Laerm;42968;52.094;4.328;2024-01-30T07:03:11;68.89;58.94;79.52;;
57092;Laerm;42968;52.094;4.328;2024-01-30T07:05:36;68.98;58.82;91.86;;
57092;Laerm;42968;52.094;4.328;2024-01-30T07:08:01;70.51;57.41;79.14;;
57092;Laerm;42968;52.094;4.328;2024-01-30T07:10:27;68.76;54.29;76.51;;
57092;Laerm;42968;52.094;4.328;2024-01-30T07:12:52;70.17;57.86;81.66;;
57092;Laerm;42968;52.094;4.328;2024-01-30T07:15:17;70.06;54.99;77.59;;
57092;Laerm;42968;52.094;4.328;2024-01-30T07:17:45;68.61;57.82;75.39;;
57092;Laerm;42968;52.094;4.328;2024-01-30T07:20:11;70.31;54.87;80.22;;
57092;Laerm;42968;52.094;4.328;2024-01-30T07:22:36;69.95;58.20;76.71;;
57092;Laerm;42968;52.094;4.328;2024-01-30T07:25:01;68.94;57.13;77.15;;
57092;Laerm;42968;52.094;4.328;2024-01-30T07:27:26;69.59;59.63;81.48;;
57092;Laerm;42968;52.094;4.328;2024-01-30T07:29:52;69.03;56.62;81.45;;
57092;Laerm;42968;52.094;4.328;2024-01-30T07:32:17;69.42;61.42;79.28;;
57092;Laerm;42968;52.094;4.328;2024-01-30T07:34:43;68.41;56.12;75.95;;
57092;Laerm;42968;52.094;4.328;2024-01-30T07:37:08;65.34;56.40;73.06;;
57092;Laerm;42968;52.094;4.328;2024-01-30T07:39:34;66.44;55.41;75.28;;
57092;Laerm;42968;52.094;4.328;2024-01-30T07:42:00;68.93;51.54;82.01;;
57092;Laerm;42968;52.094;4.328;2024-01-30T07:44:25;70.58;57.61;85.88;;
57092;Laerm;42968;52.094;4.328;2024-01-30T07:46:50;71.80;57.73;89.57;;
57092;Laerm;42968;52.094;4.328;2024-01-30T07:49:16;69.91;57.12;82.94;;
57092;Laerm;42968;52.094;4.328;2024-01-30T07:51:41;70.12;52.64;80.16;;
57092;Laerm;42968;52.094;4.328;2024-01-30T07:54:12;69.15;53.23;79.46;;
57092;Laerm;42968;52.094;4.328;2024-01-30T07:56:38;69.13;51.95;76.08;;
57092;Laerm;42968;52.094;4.328;2024-01-30T07:59:03;67.96;49.81;79.15;;
57092;Laerm;42968;52.094;4.328;2024-01-30T08:01:28;70.46;51.81;77.49;;
57092;Laerm;42968;52.094;4.328;2024-01-30T08:03:53;69.80;50.03;81.46;;
57092;Laerm;42968;52.094;4.328;2024-01-30T08:06:19;69.67;51.96;77.14;;
57092;Laerm;42968;52.094;4.328;2024-01-30T08:08:44;70.28;56.75;77.44;;
57092;Laerm;42968;52.094;4.328;2024-01-30T08:11:10;69.84;49.66;77.75;;
57092;Laerm;42968;52.094;4.328;2024-01-30T08:13:35;70.04;58.60;76.59;;
57092;Laerm;42968;52.094;4.328;2024-01-30T08:16:00;68.64;52.31;77.21;;
57092;Laerm;42968;52.094;4.328;2024-01-30T08:18:25;68.00;52.07;86.78;;
57092;Laerm;42968;52.094;4.328;2024-01-30T08:20:51;69.93;46.80;81.17;;
57092;Laerm;42968;52.094;4.328;2024-01-30T08:23:16;69.47;49.50;77.15;;
57092;Laerm;42968;52.094;4.328;2024-01-30T08:25:41;70.74;51.54;82.94;;
57092;Laerm;42968;52.094;4.328;2024-01-30T08:28:07;68.82;53.63;79.57;;
57092;Laerm;42968;52.094;4.328;2024-01-30T08:30:32;68.37;53.81;78.76;;
57092;Laerm;42968;52.094;4.328;2024-01-30T08:32:57;70.02;51.43;78.87;;
57092;Laerm;42968;52.094;4.328;2024-01-30T08:35:23;69.28;50.79;79.83;;
57092;Laerm;42968;52.094;4.328;2024-01-30T08:37:48;67.81;52.34;78.88;;
57092;Laerm;42968;52.094;4.328;2024-01-30T08:40:13;69.69;53.88;78.71;;
57092;Laerm;42968;52.094;4.328;2024-01-30T08:42:38;70.22;52.47;83.39;;
57092;Laerm;42968;52.094;4.328;2024-01-30T08:45:04;69.85;55.89;82.97;;
57092;Laerm;42968;52.094;4.328;2024-01-30T08:47:30;69.38;55.77;83.81;;
57092;Laerm;42968;52.094;4.328;2024-01-30T08:49:55;68.95;57.25;74.96;;
57092;Laerm;42968;52.094;4.328;2024-01-30T08:52:21;69.90;55.76;78.55;;
57092;Laerm;42968;52.094;4.328;2024-01-30T08:54:46;68.97;51.98;79.89;;
57092;Laerm;42968;52.094;4.328;2024-01-30T08:57:11;68.04;52.03;76.48;;
57092;Laerm;42968;52.094;4.328;2024-01-30T08:59:36;69.08;52.28;79.28;;
57092;Laerm;42968;52.094;4.328;2024-01-30T09:02:02;69.71;59.03;79.35;;
57092;Laerm;42968;52.094;4.328;2024-01-30T09:04:28;69.58;51.46;77.79;;
57092;Laerm;42968;52.094;4.328;2024-01-30T09:06:53;68.81;53.97;76.52;;
57092;Laerm;42968;52.094;4.328;2024-01-30T09:09:19;69.49;57.80;76.09;;
57092;Laerm;42968;52.094;4.328;2024-01-30T09:11:44;69.39;51.09;79.72;;
57092;Laerm;42968;52.094;4.328;2024-01-30T09:14:09;69.78;54.24;78.22;;
57092;Laerm;42968;52.094;4.328;2024-01-30T09:16:34;68.97;56.25;77.56;;
57092;Laerm;42968;52.094;4.328;2024-01-30T09:18:59;67.98;52.15;79.25;;
57092;Laerm;42968;52.094;4.328;2024-01-30T09:21:25;68.79;53.66;79.28;;
57092;Laerm;42968;52.094;4.328;2024-01-30T09:23:51;67.48;56.02;77.67;;
57092;Laerm;42968;52.094;4.328;2024-01-30T09:26:16;69.84;56.77;79.56;;
57092;Laerm;42968;52.094;4.328;2024-01-30T09:28:42;69.02;50.10;81.62;;
57092;Laerm;42968;52.094;4.328;2024-01-30T09:31:10;68.98;52.64;78.82;;
57092;Laerm;42968;52.094;4.328;2024-01-30T09:33:36;68.30;54.74;79.61;;
57092;Laerm;42968;52.094;4.328;2024-01-30T09:36:01;68.92;58.29;78.49;;
57092;Laerm;42968;52.094;4.328;2024-01-30T09:38:26;68.51;49.92;75.77;;
57092;Laerm;42968;52.094;4.328;2024-01-30T09:40:53;68.08;53.81;76.72;;
57092;Laerm;42968;52.094;4.328;2024-01-30T09:43:20;69.53;51.24;83.95;;
57092;Laerm;42968;52.094;4.328;2024-01-30T09:45:47;69.55;53.37;80.78;;
57092;Laerm;42968;52.094;4.328;2024-01-30T09:48:14;67.78;50.43;76.26;;
57092;Laerm;42968;52.094;4.328;2024-01-30T09:50:40;69.36;51.84;80.80;;
57092;Laerm;42968;52.094;4.328;2024-01-30T09:53:05;69.75;52.21;80.89;;
57092;Laerm;42968;52.094;4.328;2024-01-30T09:55:31;68.34;52.88;81.85;;
57092;Laerm;42968;52.094;4.328;2024-01-30T09:57:57;69.80;49.82;79.22;;
57092;Laerm;42968;52.094;4.328;2024-01-30T10:00:22;69.92;53.75;85.05;;
57092;Laerm;42968;52.094;4.328;2024-01-30T10:02:52;68.74;53.27;78.74;;
57092;Laerm;42968;52.094;4.328;2024-01-30T10:05:17;70.35;56.03;77.59;;
57092;Laerm;42968;52.094;4.328;2024-01-30T10:07:52;69.08;56.97;77.54;;
57092;Laerm;42968;52.094;4.328;2024-01-30T10:10:17;70.45;53.16;83.44;;
57092;Laerm;42968;52.094;4.328;2024-01-30T10:12:43;69.01;51.62;77.88;;
57092;Laerm;42968;52.094;4.328;2024-01-30T10:15:08;69.27;50.46;77.68;;
57092;Laerm;42968;52.094;4.328;2024-01-30T10:17:33;69.01;53.04;77.47;;
57092;Laerm;42968;52.094;4.328;2024-01-30T10:20:04;68.23;49.93;78.58;;
57092;Laerm;42968;52.094;4.328;2024-01-30T10:22:29;70.61;55.38;77.68;;
57092;Laerm;42968;52.094;4.328;2024-01-30T10:24:55;69.67;52.26;85.98;;
57092;Laerm;42968;52.094;4.328;2024-01-30T10:27:24;70.44;56.93;81.06;;
57092;Laerm;42968;52.094;4.328;2024-01-30T10:29:49;68.24;56.94;78.92;;
57092;Laerm;42968;52.094;4.328;2024-01-30T10:32:14;69.43;52.45;77.76;;
57092;Laerm;42968;52.094;4.328;2024-01-30T10:34:40;68.81;52.89;79.66;;
57092;Laerm;42968;52.094;4.328;2024-01-30T10:37:09;70.27;56.27;76.97;;
57092;Laerm;42968;52.094;4.328;2024-01-30T10:39:38;69.02;51.43;82.02;;
57092;Laerm;42968;52.094;4.328;2024-01-30T10:42:04;68.84;54.89;76.34;;
57092;Laerm;42968;52.094;4.328;2024-01-30T10:44:30;69.91;49.66;79.07;;
57092;Laerm;42968;52.094;4.328;2024-01-30T10:47:00;69.08;54.34;78.48;;
57092;Laerm;42968;52.094;4.328;2024-01-30T10:49:28;69.88;55.20;83.00;;
57092;Laerm;42968;52.094;4.328;2024-01-30T10:51:53;67.51;49.15;78.63;;
57092;Laerm;42968;52.094;4.328;2024-01-30T10:54:20;68.12;52.11;76.39;;
57092;Laerm;42968;52.094;4.328;2024-01-30T10:56:45;68.77;56.75;80.05;;
57092;Laerm;42968;52.094;4.328;2024-01-30T10:59:11;69.35;53.29;78.94;;
57092;Laerm;42968;52.094;4.328;2024-01-30T11:01:38;69.76;57.09;83.70;;
57092;Laerm;42968;52.094;4.328;2024-01-30T11:04:03;70.02;57.69;80.43;;
57092;Laerm;42968;52.094;4.328;2024-01-30T11:06:29;68.93;52.33;77.34;;
57092;Laerm;42968;52.094;4.328;2024-01-30T11:09:01;69.24;54.87;77.20;;
57092;Laerm;42968;52.094;4.328;2024-01-30T11:11:28;69.46;55.10;80.33;;
57092;Laerm;42968;52.094;4.328;2024-01-30T11:13:54;79.31;57.14;100.81;;
57092;Laerm;42968;52.094;4.328;2024-01-30T11:16:19;69.41;53.49;78.06;;
57092;Laerm;42968;52.094;4.328;2024-01-30T11:18:49;68.81;49.55;77.60;;
57092;Laerm;42968;52.094;4.328;2024-01-30T11:21:15;68.64;53.90;75.81;;
57092;Laerm;42968;52.094;4.328;2024-01-30T11:23:40;69.62;54.61;77.92;;
57092;Laerm;42968;52.094;4.328;2024-01-30T11:26:05;68.98;52.12;76.60;;
57092;Laerm;42968;52.094;4.328;2024-01-30T11:28:32;69.77;52.80;77.86;;
57092;Laerm;42968;52.094;4.328;2024-01-30T11:31:06;70.04;52.78;82.11;;
57092;Laerm;42968;52.094;4.328;2024-01-30T11:33:35;70.12;54.14;77.46;;
57092;Laerm;42968;52.094;4.328;2024-01-30T11:36:00;67.67;49.72;76.03;;
57092;Laerm;42968;52.094;4.328;2024-01-30T11:38:29;69.50;54.53;78.55;;
57092;Laerm;42968;52.094;4.328;2024-01-30T11:40:54;67.14;48.66;79.10;;
57092;Laerm;42968;52.094;4.328;2024-01-30T11:43:20;70.12;58.63;78.43;;
57092;Laerm;42968;52.094;4.328;2024-01-30T11:45:46;69.38;50.29;77.48;;
57092;Laerm;42968;52.094;4.328;2024-01-30T11:48:11;69.08;55.55;78.70;;
57092;Laerm;42968;52.094;4.328;2024-01-30T11:50:37;68.30;52.85;76.75;;
57092;Laerm;42968;52.094;4.328;2024-01-30T11:53:03;68.47;49.53;77.25;;
57092;Laerm;42968;52.094;4.328;2024-01-30T11:55:30;68.29;53.44;75.41;;
57092;Laerm;42968;52.094;4.328;2024-01-30T11:57:56;68.59;53.87;77.69;;
57092;Laerm;42968;52.094;4.328;2024-01-30T12:00:21;69.64;49.57;77.92;;
57092;Laerm;42968;52.094;4.328;2024-01-30T12:02:50;69.04;56.73;80.94;;
57092;Laerm;42968;52.094;4.328;2024-01-30T12:05:15;69.89;54.79;77.86;;
57092;Laerm;42968;52.094;4.328;2024-01-30T12:07:43;68.80;54.12;76.57;;
57092;Laerm;42968;52.094;4.328;2024-01-30T12:10:09;70.99;53.01;81.88;;
57092;Laerm;42968;52.094;4.328;2024-01-30T12:12:34;69.60;51.62;76.21;;
57092;Laerm;42968;52.094;4.328;2024-01-30T12:15:00;69.23;55.96;76.46;;
57092;Laerm;42968;52.094;4.328;2024-01-30T12:17:32;70.27;50.21;81.94;;
57092;Laerm;42968;52.094;4.328;2024-01-30T12:20:10;70.27;55.43;77.81;;
57092;Laerm;42968;52.094;4.328;2024-01-30T12:22:37;69.95;56.99;80.87;;
57092;Laerm;42968;52.094;4.328;2024-01-30T12:25:07;68.73;53.52;81.32;;
57092;Laerm;42968;52.094;4.328;2024-01-30T12:27:33;69.83;57.14;78.37;;
57092;Laerm;42968;52.094;4.328;2024-01-30T12:29:58;68.95;56.35;76.47;;
57092;Laerm;42968;52.094;4.328;2024-01-30T12:32:23;68.99;51.19;80.90;;
57092;Laerm;42968;52.094;4.328;2024-01-30T12:34:49;68.43;51.55;77.56;;
57092;Laerm;42968;52.094;4.328;2024-01-30T12:37:14;71.66;51.19;85.06;;
57092;Laerm;42968;52.094;4.328;2024-01-30T12:39:44;70.00;52.09;80.94;;
57092;Laerm;42968;52.094;4.328;2024-01-30T12:42:09;70.09;52.94;78.01;;
57092;Laerm;42968;52.094;4.328;2024-01-30T12:44:35;69.22;55.76;76.75;;
57092;Laerm;42968;52.094;4.328;2024-01-30T12:47:02;71.02;59.85;82.98;;
57092;Laerm;42968;52.094;4.328;2024-01-30T12:49:27;69.47;50.73;82.43;;
57092;Laerm;42968;52.094;4.328;2024-01-30T12:51:53;69.57;51.87;82.20;;
57092;Laerm;42968;52.094;4.328;2024-01-30T12:54:18;70.40;50.93;84.26;;
57092;Laerm;42968;52.094;4.328;2024-01-30T12:56:43;69.19;52.26;76.94;;
57092;Laerm;42968;52.094;4.328;2024-01-30T12:59:08;68.33;51.43;76.88;;
57092;Laerm;42968;52.094;4.328;2024-01-30T13:01:33;69.71;52.19;81.10;;
57092;Laerm;42968;52.094;4.328;2024-01-30T13:03:59;68.73;50.00;77.88;;
57092;Laerm;42968;52.094;4.328;2024-01-30T13:06:24;69.76;49.12;80.57;;
57092;Laerm;42968;52.094;4.328;2024-01-30T13:08:50;68.18;51.10;76.23;;
57092;Laerm;42968;52.094;4.328;2024-01-30T13:11:15;70.42;52.75;79.40;;
57092;Laerm;42968;52.094;4.328;2024-01-30T13:13:40;68.76;52.63;78.14;;
57092;Laerm;42968;52.094;4.328;2024-01-30T13:16:06;82.00;57.60;106.13;;
57092;Laerm;42968;52.094;4.328;2024-01-30T13:18:31;69.62;53.06;80.66;;
57092;Laerm;42968;52.094;4.328;2024-01-30T13:20:56;70.35;51.60;80.87;;
57092;Laerm;42968;52.094;4.328;2024-01-30T13:23:22;70.36;58.60;77.59;;
57092;Laerm;42968;52.094;4.328;2024-01-30T13:25:47;71.01;51.88;79.22;;
57092;Laerm;42968;52.094;4.328;2024-01-30T13:28:12;71.23;58.66;80.24;;
57092;Laerm;42968;52.094;4.328;2024-01-30T13:30:38;69.47;53.54;77.15;;
57092;Laerm;42968;52.094;4.328;2024-01-30T13:33:03;70.93;55.49;78.74;;
57092;Laerm;42968;52.094;4.328;2024-01-30T13:35:28;69.80;52.90;77.28;;